PGUM

Guam

Airport
ICAO code
PGUM
Summary
ICAO Region
APAC
ICAO Territory
Location

Barrigada and Tamuning,

Coordinates
13° 29' 0" N , 144° 47' 46" E
KCC
Metar
Observation
PGUM 241454Z 05003KT 3SM -RA FEW024 SCT050 SCT080 26/25 A2973 RMK AO2 TSE1357 SLP058 P0007 60075 T02560250 58007
Station
Agana, Guam International Airport
Date/Time
2022-09-24 14:54:00
Wind direction
50°
Wind speed
03 kts
Lowest cloud amount
few clouds
Temperature
25.6°C
Dew point
25°C
Humidity
96%
Weather condition
light rain

Description

International airport serving Guam.

Climatology

Tropical Savanna climate (Köppen climate classification Aw) - monthly mean temperature above 18°C in every month of the year and a pronounced dry season (December to June).

Guam is affected by Tropical Revolving Storms during the wet season from July to November.

Runways

Designator Length Width Surface Rops
06R/24L 2439 46 ASP Yes/Yes
06L/24R 3053 46 PEM Yes/Yes

SKYbrary Partners:

Safety knowledge contributed by: